Gillam Airport
CYGX : now visible

Airfield :











YOU CAN JOIN US ON...

 
LOGIN :

Register | Disclaimer

   EN    FR    IT 

 









Legend :    VFR   Marginal VFR   IFR   Intensive IFR   Very Intensive IFR
Visi :
Ceiling :
>= 8 km
>= 3000ft
5 to 8 km
1000 to 3000 ft
1500m to 5 km
500 to 1000 ft
800 to 1500m
200 to 500 ft
< 800m
< 200 ft
Symbols :   Thunderstorms  Fog  Heavy snow  Heavy precipitations  Wind > 20 kt






- Airport Elevation : 476 ft
- IATA code : YGX


CYGX - Gillam

CURRENT METAR :
  • 181100Z 05010G15KT 15SM OVC012 M23/M25 A3034 RMK SC8 SLP297

EXPIRED METARs :
  • 181000Z 04010KT 15SM OVC012 M23/M25 A3034 RMK SC8 SLP296
  • 180900Z 04009KT 15SM OVC012 M23/M25 A3034 RMK SC8 SLP296

TAF TAF CYGX
Valid from the 18 at 07:00 until the 18 at 19:00 UTC


180638Z 1807/1819 05008KT P6SM BKN012
TEMPO 1807/1815 5SM -SN
FM181500 02008KT P6SM BKN015
TEMPO 1815/1819 SCT015 BKN050 RMK NXT FCST BY 181300Z



MET'MAP, your aeronautical weather chart ! - Copyright ORBIFLY December 2007 - Disclaimer

ORBIFLY MET'MAP TEAM :

Programming & Development : Alexandra Zaïnal
Concept & original design : Baudouin d'Aumeries
Assistance for programming : Marc-Olivier Méhu
Technical & hardware support : Manuel Goepfert

Contact : metmap@orbifly.com




SOURCES & CREDITS :

   NOAA       Earth
Advisory